Decoded Metar for CYXR (EARLTON in ON, CANADA) (IATA:YXR) | Meteo·Mobile Aviation Weather
aviador You're here:

CYXR Decoded Metar

EARLTON in ON, CANADA
Report Time2019-01-22 00:00:00
UTC Time2019-01-22 00:34:21
Flight Rules vfr VFR
Wind270° at 04 kt
W.Decomp.*RWY 26: 3.7 kt HW 1.5 kt RCW
RWY 34: 2.1 kt HW 3.4 kt LCW
W.Rank270° ranks 23
Current wind is below 270° avg. (7.5)
Visibility9999 m
Phenomena:N/A
Clouds:N/A
Expected CloudBase > 1,600 ft AGL from Temp-Dew spread
CeilingNone
Temp-21°C (ISA -34)
Dew Point-25°C (70% RH)
AAT-26.2°C
QNH1031 hPa
Density Alt-4,219 ft
Elevation797 ft
Report Wrong Elevation
Raw Report
CYXR 220000Z AUTO 27004KT 9SM CLR M21/M25 A3044 RMK ICG INTMT
SLP342=

Extra information for CYXR:More info

Metar Taf Metar & Taf Last 4 Metars F.Rules Stats Wind Profile Meteogram Temp Stats Airport Information Weather charts Add Link Nearby VenuesMetar ALERT Operation Metar Decoded Social comments